createdAt,value
2017-03-06T00:00:18.129Z,6.4
2017-03-06T00:01:18.000Z,6.4
2017-03-06T00:02:18.037Z,6.42
2017-03-06T00:03:18.048Z,6.39
2017-03-06T00:04:18.108Z,6.2
2017-03-06T00:05:18.123Z,6.25
2017-03-06T00:06:18.150Z,6.14
2017-03-06T00:07:18.176Z,6.25
2017-03-06T00:08:18.211Z,6.26
2017-03-06T00:09:18.240Z,6.18
2017-03-06T00:10:18.252Z,6.14
2017-03-06T00:11:18.290Z,6.18
2017-03-06T00:12:18.322Z,6.07
2017-03-06T00:13:18.357Z,6.1
2017-03-06T00:14:18.382Z,6.07
2017-03-06T00:15:18.408Z,6.07
2017-03-06T00:16:18.427Z,6.02
2017-03-06T00:17:18.456Z,5.96
2017-03-06T00:18:18.490Z,5.88
2017-03-06T00:19:18.522Z,5.82
2017-03-06T00:20:18.545Z,5.88
2017-03-06T00:21:18.573Z,5.8
2017-03-06T00:22:18.596Z,5.8
2017-03-06T00:23:18.642Z,5.75
2017-03-06T00:24:18.657Z,5.77
2017-03-06T00:25:18.714Z,5.77
2017-03-06T00:26:18.700Z,5.72
2017-03-06T00:27:18.740Z,5.62
2017-03-06T00:28:18.754Z,5.59
2017-03-06T00:29:18.802Z,5.75
2017-03-06T00:30:18.828Z,5.67
2017-03-06T00:31:18.849Z,5.59
2017-03-06T00:32:18.874Z,5.62
2017-03-06T00:33:18.908Z,5.52
2017-03-06T00:34:18.953Z,5.55
2017-03-06T00:35:18.948Z,5.52
2017-03-06T00:36:19.004Z,5.49
2017-03-06T00:37:19.032Z,5.42
2017-03-06T00:38:19.052Z,5.39
2017-03-06T00:39:19.081Z,5.28
2017-03-06T00:40:19.103Z,5.26
2017-03-06T00:41:19.129Z,5.3
2017-03-06T00:42:19.155Z,5.24
2017-03-06T00:43:19.190Z,5.16
2017-03-06T00:44:19.226Z,5.12
2017-03-06T00:45:19.243Z,5.08
2017-03-06T00:46:19.275Z,4.88
2017-03-06T00:47:19.304Z,4.95
2017-03-06T00:48:19.330Z,4.87
2017-03-06T00:49:19.347Z,4.79
2017-03-06T00:50:19.390Z,4.74
2017-03-06T00:51:19.412Z,4.78
2017-03-06T00:52:19.441Z,4.64
2017-03-06T00:53:19.465Z,4.54
2017-03-06T00:54:19.492Z,4.46
2017-03-06T00:55:19.809Z,4.47
2017-03-06T00:56:19.563Z,4.33
2017-03-06T00:57:19.571Z,4.36
2017-03-06T00:58:19.597Z,4.33
2017-03-06T00:59:19.628Z,4.21
2017-03-06T01:00:19.666Z,4.17
2017-03-06T01:01:19.696Z,4.12
2017-03-06T01:02:19.711Z,4.15
2017-03-06T01:03:19.725Z,4.14
2017-03-06T01:04:19.766Z,3.99
2017-03-06T01:05:19.815Z,4
2017-03-06T01:06:19.830Z,3.97
2017-03-06T01:07:19.848Z,3.99
2017-03-06T01:08:19.887Z,3.96
2017-03-06T01:09:19.895Z,4
2017-03-06T01:10:20.243Z,3.96
2017-03-06T01:11:20.071Z,3.96
2017-03-06T01:12:19.991Z,3.85
2017-03-06T01:13:20.018Z,3.84
2017-03-06T01:14:20.048Z,3.96
2017-03-06T01:15:20.072Z,3.86
2017-03-06T01:16:20.103Z,3.93
2017-03-06T01:17:20.136Z,3.81
2017-03-06T01:18:20.158Z,3.92
2017-03-06T01:19:20.179Z,3.86
2017-03-06T01:20:20.206Z,3.76
2017-03-06T01:22:34.397Z,3.76
2017-03-06T01:23:34.396Z,3.82
2017-03-06T01:24:34.408Z,3.72
2017-03-06T01:25:34.457Z,3.75
2017-03-06T01:26:34.518Z,3.75
2017-03-06T01:27:34.506Z,3.75
2017-03-06T01:28:34.547Z,3.71
2017-03-06T01:29:34.562Z,3.74
2017-03-06T01:30:34.600Z,3.64
2017-03-06T01:31:34.612Z,3.67
2017-03-06T01:32:34.649Z,3.67
2017-03-06T01:33:34.700Z,3.57
2017-03-06T01:34:34.704Z,3.54
2017-03-06T01:35:34.725Z,3.49
2017-03-06T01:36:34.754Z,3.49
2017-03-06T01:37:34.784Z,3.48
2017-03-06T01:38:34.811Z,3.53
2017-03-06T01:39:34.832Z,3.46
2017-03-06T01:40:34.862Z,3.46
2017-03-06T01:41:34.885Z,3.49
2017-03-06T01:42:34.931Z,3.49
2017-03-06T01:43:34.938Z,3.42
2017-03-06T01:44:34.958Z,3.51
2017-03-06T01:45:35.026Z,3.49
2017-03-06T01:46:35.032Z,3.51
2017-03-06T01:47:35.050Z,3.45
2017-03-06T01:48:35.084Z,3.49
2017-03-06T01:49:35.109Z,3.51
2017-03-06T01:50:35.141Z,3.39
2017-03-06T01:51:35.161Z,3.42
2017-03-06T01:52:35.186Z,3.37
2017-03-06T01:53:35.213Z,3.43
2017-03-06T01:54:35.247Z,3.43
2017-03-06T01:55:35.277Z,3.34
2017-03-06T01:56:35.309Z,3.34
2017-03-06T01:57:35.326Z,3.37
2017-03-06T01:58:35.350Z,3.4
2017-03-06T01:59:35.377Z,3.4
2017-03-06T02:00:35.405Z,3.43
2017-03-06T02:01:35.452Z,3.48
2017-03-06T02:02:35.462Z,3.56
2017-03-06T02:03:35.503Z,3.57
2017-03-06T02:04:35.514Z,3.61
2017-03-06T02:05:35.547Z,3.64
2017-03-06T02:06:35.559Z,3.56
2017-03-06T02:07:35.603Z,3.63
2017-03-06T02:08:35.625Z,3.67
2017-03-06T02:09:35.648Z,3.57
2017-03-06T02:10:35.677Z,3.56
2017-03-06T02:11:35.716Z,3.6
2017-03-06T02:12:35.744Z,3.64
2017-03-06T02:13:35.761Z,3.67
2017-03-06T02:14:35.782Z,3.72
2017-03-06T02:15:35.808Z,3.76
2017-03-06T02:16:35.836Z,3.79
2017-03-06T02:17:35.866Z,3.86
2017-03-06T02:18:35.902Z,3.93
2017-03-06T02:19:35.915Z,3.92
2017-03-06T02:20:35.949Z,3.89
2017-03-06T02:21:35.969Z,3.92
2017-03-06T02:22:35.998Z,3.86
2017-03-06T02:23:36.023Z,3.86
2017-03-06T02:24:36.056Z,3.85
2017-03-06T02:25:36.076Z,3.89
2017-03-06T02:26:36.115Z,3.85
2017-03-06T02:27:36.122Z,3.9
2017-03-06T02:28:36.165Z,3.86
2017-03-06T02:29:36.186Z,3.92
2017-03-06T02:30:36.211Z,3.93
2017-03-06T02:31:36.239Z,3.97
2017-03-06T02:32:36.277Z,3.93
2017-03-06T02:33:36.294Z,3.99
2017-03-06T02:34:36.317Z,3.96
2017-03-06T02:35:36.347Z,4
2017-03-06T02:36:36.378Z,4.07
2017-03-06T02:37:36.401Z,3.94
2017-03-06T02:38:36.431Z,3.9
2017-03-06T02:39:36.465Z,3.93
2017-03-06T02:40:36.484Z,3.89
2017-03-06T02:41:36.508Z,3.92
2017-03-06T02:42:36.539Z,3.82
2017-03-06T02:43:36.561Z,3.86
2017-03-06T02:44:36.593Z,3.72
2017-03-06T02:45:36.616Z,3.72
2017-03-06T02:46:36.646Z,3.79
2017-03-06T02:47:36.674Z,3.72
2017-03-06T02:48:36.711Z,3.67
2017-03-06T02:49:36.728Z,3.66
2017-03-06T02:50:36.752Z,3.58
2017-03-06T02:51:36.791Z,3.6
2017-03-06T02:52:36.816Z,3.6
2017-03-06T02:53:36.861Z,3.53
2017-03-06T02:54:36.860Z,3.51
2017-03-06T02:55:36.891Z,3.37
2017-03-06T02:56:36.915Z,3.35
2017-03-06T02:57:36.941Z,3.4
2017-03-06T02:58:36.996Z,3.32
2017-03-06T02:59:36.997Z,3.3
2017-03-06T03:00:37.031Z,3.24
2017-03-06T03:01:37.054Z,3.23
2017-03-06T03:02:37.077Z,3.2
2017-03-06T03:03:37.108Z,3.2
2017-03-06T03:04:37.138Z,3.21
2017-03-06T03:05:37.162Z,3.21
2017-03-06T03:06:37.181Z,3.14
2017-03-06T03:07:37.231Z,3.08
2017-03-06T03:08:37.240Z,3.06
2017-03-06T03:09:37.260Z,3.11
2017-03-06T03:10:37.289Z,3.2
2017-03-06T03:11:37.313Z,3.17
2017-03-06T03:12:37.354Z,3.11
2017-03-06T03:13:37.367Z,3.05
2017-03-06T03:14:37.406Z,2.98
2017-03-06T03:15:37.424Z,3.08
2017-03-06T03:16:37.449Z,3.05
2017-03-06T03:17:37.477Z,3.03
2017-03-06T03:18:37.498Z,3.06
2017-03-06T03:19:37.543Z,3.03
2017-03-06T03:20:37.560Z,2.95
2017-03-06T03:21:37.579Z,2.91
2017-03-06T03:22:37.611Z,2.95
2017-03-06T03:23:37.635Z,2.88
2017-03-06T03:24:37.670Z,2.85
2017-03-06T03:25:37.694Z,2.88
2017-03-06T03:26:37.737Z,2.8
2017-03-06T03:27:37.745Z,2.67
2017-03-06T03:28:37.771Z,2.73
2017-03-06T03:29:37.772Z,2.76
2017-03-06T03:30:37.826Z,2.66
2017-03-06T03:31:37.849Z,2.54
2017-03-06T03:32:37.873Z,2.59
2017-03-06T03:33:37.915Z,2.59
2017-03-06T03:34:37.925Z,2.59
2017-03-06T03:35:37.958Z,2.55
2017-03-06T03:36:37.983Z,2.55
2017-03-06T03:37:38.005Z,2.69
2017-03-06T03:38:38.042Z,2.67
2017-03-06T03:39:38.074Z,2.66
2017-03-06T03:40:38.094Z,2.7
2017-03-06T03:41:38.127Z,2.66
2017-03-06T03:42:38.141Z,2.72
2017-03-06T03:43:38.159Z,2.72
2017-03-06T03:44:38.195Z,2.76
2017-03-06T03:45:38.221Z,2.7
2017-03-06T03:46:38.250Z,2.66
2017-03-06T03:47:38.288Z,2.7
2017-03-06T03:48:38.297Z,2.69
2017-03-06T03:49:38.328Z,2.66
2017-03-06T03:50:38.354Z,2.73
2017-03-06T03:51:38.386Z,2.65
2017-03-06T03:52:38.407Z,2.73
2017-03-06T03:53:38.429Z,2.73
2017-03-06T03:54:38.462Z,2.8
2017-03-06T03:55:38.482Z,2.8
2017-03-06T03:56:38.510Z,2.84
2017-03-06T03:57:38.536Z,2.95
2017-03-06T03:58:38.557Z,3.01
2017-03-06T03:59:38.586Z,2.96
2017-03-06T04:00:38.631Z,2.93
2017-03-06T04:01:38.645Z,2.99
2017-03-06T04:02:38.678Z,2.99
2017-03-06T04:03:38.700Z,2.99
2017-03-06T04:04:38.728Z,2.95
2017-03-06T04:05:38.755Z,3.01
2017-03-06T04:06:38.776Z,2.99
2017-03-06T04:07:38.819Z,3.02
2017-03-06T04:08:38.830Z,2.99
2017-03-06T04:09:38.863Z,3.02
2017-03-06T04:10:38.879Z,2.96
2017-03-06T04:11:38.909Z,2.98
2017-03-06T04:12:38.950Z,2.91
2017-03-06T04:13:38.961Z,2.98
2017-03-06T04:14:38.983Z,2.91
2017-03-06T04:15:39.010Z,2.91
2017-03-06T04:16:39.050Z,2.91
2017-03-06T04:17:39.070Z,2.91
2017-03-06T04:18:39.101Z,2.98
2017-03-06T04:19:39.117Z,2.99
2017-03-06T04:20:39.137Z,2.96
2017-03-06T04:21:39.169Z,3.09
2017-03-06T04:22:39.195Z,2.96
2017-03-06T04:23:39.221Z,3.03
2017-03-06T04:24:39.260Z,2.99
2017-03-06T04:25:39.283Z,3.03
2017-03-06T04:26:39.315Z,3.01
2017-03-06T04:27:39.342Z,2.99
2017-03-06T04:28:39.361Z,3.03
2017-03-06T04:29:39.384Z,3.01
2017-03-06T04:30:39.412Z,2.96
2017-03-06T04:31:39.442Z,3.01
2017-03-06T04:32:39.462Z,2.95
2017-03-06T04:33:39.478Z,3.01
2017-03-06T04:34:39.515Z,2.95
2017-03-06T04:35:39.540Z,2.96
2017-03-06T04:36:39.559Z,2.98
2017-03-06T04:37:39.616Z,2.93
2017-03-06T04:38:39.617Z,2.95
2017-03-06T04:39:39.642Z,2.96
2017-03-06T04:40:39.687Z,2.95
2017-03-06T04:41:39.699Z,2.98
2017-03-06T04:42:39.719Z,2.99
2017-03-06T04:43:39.752Z,2.95
2017-03-06T04:44:39.779Z,2.99
2017-03-06T04:45:39.800Z,2.91
2017-03-06T04:46:39.833Z,3.02
2017-03-06T04:47:39.858Z,2.96
2017-03-06T04:48:39.886Z,3.01
2017-03-06T04:49:39.910Z,2.96
2017-03-06T04:50:39.934Z,2.98
2017-03-06T04:51:39.964Z,2.99
2017-03-06T04:52:39.995Z,3.03
2017-03-06T04:53:40.016Z,3.13
2017-03-06T04:54:40.039Z,3.16
2017-03-06T04:55:40.091Z,3.17
2017-03-06T04:56:40.090Z,3.06
2017-03-06T04:57:40.116Z,3.17
2017-03-06T04:58:40.143Z,3.21
2017-03-06T04:59:40.183Z,3.11
2017-03-06T05:00:40.274Z,3.17
2017-03-06T05:01:40.267Z,3.14
2017-03-06T05:02:40.294Z,3.21
2017-03-06T05:03:40.376Z,3.14
2017-03-06T05:04:40.382Z,3.23
2017-03-06T05:05:40.391Z,3.11
2017-03-06T05:06:40.400Z,3.08
2017-03-06T05:07:40.441Z,3.17
2017-03-06T05:08:40.475Z,3.17
2017-03-06T05:09:40.532Z,3.2
2017-03-06T05:10:40.525Z,3.19
2017-03-06T05:11:40.570Z,3.17
2017-03-06T05:12:40.552Z,3.13
2017-03-06T05:13:40.649Z,3.16
2017-03-06T05:14:40.616Z,3.17
2017-03-06T05:15:40.644Z,3.21
2017-03-06T05:16:40.667Z,3.24
2017-03-06T05:17:40.691Z,3.17
2017-03-06T05:18:40.771Z,3.19
2017-03-06T05:19:40.786Z,3.19
2017-03-06T05:20:40.820Z,3.19
2017-03-06T05:21:40.797Z,3.21
2017-03-06T05:22:40.848Z,3.27
2017-03-06T05:23:40.870Z,3.32
2017-03-06T05:24:40.874Z,3.35
2017-03-06T05:25:40.900Z,3.2
2017-03-06T05:26:40.976Z,3.32
2017-03-06T05:27:40.947Z,3.32
2017-03-06T05:28:40.975Z,3.34
2017-03-06T05:29:41.024Z,3.37
2017-03-06T05:30:41.069Z,3.43
2017-03-06T05:31:41.081Z,3.42
2017-03-06T05:32:41.110Z,3.42
2017-03-06T05:33:41.137Z,3.42
2017-03-06T05:34:41.186Z,3.42
2017-03-06T05:35:41.185Z,3.43
2017-03-06T05:36:41.195Z,3.48
2017-03-06T05:37:41.246Z,3.42
2017-03-06T05:38:41.259Z,3.45
2017-03-06T05:39:41.279Z,3.46
2017-03-06T05:40:41.365Z,3.45
2017-03-06T05:41:41.384Z,3.43
2017-03-06T05:42:41.351Z,3.42
2017-03-06T05:43:41.374Z,3.49
2017-03-06T05:44:41.423Z,3.4
2017-03-06T05:45:41.458Z,3.48
2017-03-06T05:46:41.479Z,3.49
2017-03-06T05:47:41.510Z,3.49
2017-03-06T05:48:41.534Z,3.49
2017-03-06T05:49:41.564Z,3.49
2017-03-06T05:50:41.581Z,3.49
2017-03-06T05:51:41.647Z,3.46
2017-03-06T05:52:41.672Z,3.48
2017-03-06T05:53:41.677Z,3.6
2017-03-06T05:54:41.719Z,3.58
2017-03-06T05:55:41.716Z,3.61
2017-03-06T05:56:41.782Z,3.54
2017-03-06T05:57:41.768Z,3.67
2017-03-06T05:58:41.767Z,3.72
2017-03-06T05:59:41.859Z,3.76
2017-03-06T06:00:41.877Z,3.76
2017-03-06T06:01:41.879Z,3.76
2017-03-06T06:02:41.902Z,3.75
2017-03-06T06:03:41.909Z,3.76
2017-03-06T06:04:41.987Z,3.72
2017-03-06T06:05:41.966Z,3.84
2017-03-06T06:06:42.341Z,3.9
2017-03-06T06:07:42.045Z,3.85
2017-03-06T06:08:42.068Z,3.9
2017-03-06T06:09:42.087Z,3.92
2017-03-06T06:10:42.095Z,3.92
2017-03-06T06:11:42.141Z,3.85
2017-03-06T06:12:42.175Z,3.93
2017-03-06T06:13:42.158Z,3.93
2017-03-06T06:14:42.218Z,4.03
2017-03-06T06:15:42.220Z,4.02
2017-03-06T06:16:42.268Z,4.03
2017-03-06T06:17:42.300Z,4.02
2017-03-06T06:18:42.298Z,4.17
2017-03-06T06:19:42.360Z,4.17
2017-03-06T06:20:42.385Z,4.22
2017-03-06T06:21:42.702Z,4.29
2017-03-06T06:22:42.414Z,4.39
2017-03-06T06:23:42.487Z,4.4
2017-03-06T06:24:42.489Z,4.39
2017-03-06T06:25:42.516Z,4.47
2017-03-06T06:26:42.526Z,4.56
2017-03-06T06:27:42.594Z,4.61
2017-03-06T06:28:42.592Z,4.65
2017-03-06T06:29:42.627Z,4.66
2017-03-06T06:30:42.677Z,4.68
2017-03-06T06:31:42.680Z,4.66
2017-03-06T06:32:42.716Z,4.53
2017-03-06T06:33:42.700Z,4.72
2017-03-06T06:34:42.786Z,4.66
2017-03-06T06:35:42.750Z,4.75
2017-03-06T06:36:42.811Z,4.88
2017-03-06T06:37:42.815Z,4.92
2017-03-06T06:38:42.890Z,4.91
2017-03-06T06:39:42.883Z,5.1
2017-03-06T06:40:42.887Z,5.15
2017-03-06T06:41:42.934Z,5.2
2017-03-06T06:42:42.979Z,5.21
2017-03-06T06:43:42.999Z,5.23
2017-03-06T06:44:42.997Z,5.31
2017-03-06T06:45:43.034Z,5.2
2017-03-06T06:46:43.087Z,5.39
2017-03-06T06:47:43.138Z,5.27
2017-03-06T06:48:43.152Z,5.34
2017-03-06T06:49:43.139Z,5.39
2017-03-06T06:50:43.198Z,5.45
2017-03-06T06:51:43.185Z,5.39
2017-03-06T06:52:43.239Z,5.34
2017-03-06T06:53:43.276Z,5.31
2017-03-06T06:54:43.302Z,5.31
2017-03-06T06:55:43.325Z,5.37
2017-03-06T06:56:43.357Z,5.42
2017-03-06T06:57:43.360Z,5.51
2017-03-06T06:58:43.401Z,5.57
2017-03-06T06:59:44.333Z,5.66
2017-03-06T07:00:44.077Z,5.63
2017-03-06T07:01:44.093Z,5.73
2017-03-06T07:02:44.112Z,5.78
2017-03-06T07:03:44.185Z,5.77
2017-03-06T07:04:44.190Z,5.82
2017-03-06T07:05:44.218Z,5.87
2017-03-06T07:06:44.219Z,5.75
2017-03-06T07:07:44.274Z,5.67
2017-03-06T07:08:44.255Z,5.81
2017-03-06T07:09:44.339Z,5.7
2017-03-06T07:10:44.348Z,5.77
2017-03-06T07:11:44.405Z,5.82
2017-03-06T07:12:44.398Z,5.77
2017-03-06T07:13:44.439Z,5.72
2017-03-06T07:14:44.504Z,5.77
2017-03-06T07:15:44.495Z,5.78
2017-03-06T07:16:44.486Z,5.73
2017-03-06T07:17:44.604Z,5.84
2017-03-06T07:18:44.568Z,5.8
2017-03-06T07:19:44.565Z,5.7
2017-03-06T07:20:44.604Z,5.73
2017-03-06T07:21:45.002Z,5.77
2017-03-06T07:22:44.679Z,5.8
2017-03-06T07:23:44.691Z,5.87
2017-03-06T07:24:44.694Z,5.88
2017-03-06T07:25:44.754Z,6
2017-03-06T07:26:44.784Z,6.06
2017-03-06T07:27:44.785Z,6.06
2017-03-06T07:28:44.845Z,6.1
2017-03-06T07:29:44.893Z,6.05
2017-03-06T07:30:44.968Z,6.14
2017-03-06T07:31:44.899Z,6.18
2017-03-06T07:32:44.976Z,6.2
2017-03-06T07:33:44.986Z,6.26
2017-03-06T07:34:44.968Z,6.33
2017-03-06T07:35:45.141Z,6.44
2017-03-06T07:36:45.047Z,6.52
2017-03-06T07:37:45.084Z,6.67
2017-03-06T07:38:45.144Z,6.7
2017-03-06T07:39:45.197Z,6.82
2017-03-06T07:40:45.343Z,6.86
2017-03-06T07:41:45.165Z,6.91
2017-03-06T07:42:45.214Z,7
2017-03-06T07:43:45.239Z,7.18
2017-03-06T07:44:45.287Z,7.31
2017-03-06T07:45:45.315Z,7.55
2017-03-06T07:46:45.380Z,7.8
2017-03-06T07:47:45.412Z,8.09
2017-03-06T07:48:45.392Z,8.24
2017-03-06T07:49:45.439Z,8.42
2017-03-06T07:50:45.434Z,8.64
2017-03-06T07:51:45.486Z,8.72
2017-03-06T07:52:45.495Z,8.94
2017-03-06T07:53:45.904Z,9.08
2017-03-06T07:54:45.592Z,9.34
2017-03-06T07:55:45.605Z,9.52
2017-03-06T07:56:45.621Z,9.78
2017-03-06T07:57:45.691Z,9.96
2017-03-06T07:58:45.696Z,10.11
2017-03-06T07:59:45.724Z,10.38
2017-03-06T08:00:45.770Z,10.39
2017-03-06T08:01:45.827Z,10.58
2017-03-06T08:02:45.832Z,10.7
2017-03-06T08:03:45.869Z,10.73
2017-03-06T08:04:45.874Z,10.63
2017-03-06T08:05:45.883Z,10.46
2017-03-06T08:06:45.942Z,10.26
2017-03-06T08:07:45.960Z,9.96
2017-03-06T08:08:45.984Z,9.89
2017-03-06T08:09:46.195Z,9.75
2017-03-06T08:10:46.030Z,9.62
2017-03-06T08:11:46.090Z,9.48
2017-03-06T08:12:46.098Z,9.41
2017-03-06T08:13:46.193Z,9.35
2017-03-06T08:14:46.279Z,9.23
2017-03-06T08:15:46.217Z,9.2
2017-03-06T08:16:46.256Z,9.12
2017-03-06T08:17:46.315Z,9.11
2017-03-06T08:18:46.302Z,8.98
2017-03-06T08:19:46.343Z,9
2017-03-06T08:20:46.386Z,8.97
2017-03-06T08:21:46.389Z,8.94
2017-03-06T08:22:46.443Z,8.86
2017-03-06T08:23:46.446Z,8.85
2017-03-06T08:24:46.475Z,8.74
2017-03-06T08:25:46.513Z,8.76
2017-03-06T08:26:46.517Z,8.77
2017-03-06T08:27:46.597Z,8.85
2017-03-06T08:28:46.591Z,8.87
2017-03-06T08:29:46.606Z,8.82
2017-03-06T08:30:46.632Z,8.72
2017-03-06T08:31:46.703Z,8.6
2017-03-06T08:32:46.685Z,8.6
2017-03-06T08:33:46.738Z,8.64
2017-03-06T08:34:46.804Z,8.65
2017-03-06T08:35:46.786Z,8.57
2017-03-06T08:36:46.824Z,8.64
2017-03-06T08:37:46.902Z,8.6
2017-03-06T08:38:46.901Z,8.49
2017-03-06T08:39:46.954Z,8.58
2017-03-06T08:40:46.954Z,8.52
2017-03-06T08:41:46.956Z,8.46
2017-03-06T08:42:47.089Z,8.65
2017-03-06T08:43:47.025Z,8.67
2017-03-06T08:44:47.099Z,8.6
2017-03-06T08:45:47.093Z,8.61
2017-03-06T08:46:47.143Z,8.67
2017-03-06T08:47:47.166Z,8.69
2017-03-06T08:48:47.206Z,8.83
2017-03-06T08:49:47.224Z,9.03
2017-03-06T08:50:47.268Z,9.09
2017-03-06T08:51:47.303Z,9.11
2017-03-06T08:52:47.331Z,9.12
2017-03-06T08:53:47.391Z,9.21
2017-03-06T08:54:47.392Z,9.32
2017-03-06T08:55:47.386Z,9.37
2017-03-06T08:56:47.437Z,9.37
2017-03-06T08:57:47.484Z,9.38
2017-03-06T08:58:47.483Z,9.45
2017-03-06T08:59:47.887Z,9.55
2017-03-06T09:00:47.577Z,9.62
2017-03-06T09:01:47.588Z,9.89
2017-03-06T09:02:47.694Z,9.85
2017-03-06T09:03:47.695Z,10.02
2017-03-06T09:04:47.693Z,10.2
2017-03-06T09:05:47.706Z,10.38
2017-03-06T09:06:47.760Z,10.54
2017-03-06T09:07:47.788Z,10.66
2017-03-06T09:08:48.090Z,10.76
2017-03-06T09:09:48.185Z,10.67
2017-03-06T09:10:47.904Z,10.77
2017-03-06T09:11:47.890Z,10.83
2017-03-06T09:12:48.004Z,10.85
2017-03-06T09:13:47.978Z,10.84
2017-03-06T09:14:47.978Z,10.72
2017-03-06T09:15:48.069Z,10.67
2017-03-06T09:16:48.069Z,10.63
2017-03-06T09:17:48.107Z,10.55
2017-03-06T09:18:48.111Z,10.41
2017-03-06T09:19:48.196Z,10.25
2017-03-06T09:20:48.516Z,10.13
2017-03-06T09:21:48.229Z,10.05
2017-03-06T09:22:48.274Z,10.1
2017-03-06T09:23:48.317Z,9.98
2017-03-06T09:24:48.294Z,9.89
2017-03-06T09:25:48.397Z,9.9
2017-03-06T09:26:48.399Z,9.93
2017-03-06T09:27:48.394Z,9.96
2017-03-06T09:28:48.481Z,9.95
2017-03-06T09:29:48.508Z,9.96
2017-03-06T09:30:48.506Z,9.96
2017-03-06T09:31:48.523Z,10.02
2017-03-06T09:32:48.691Z,9.98
2017-03-06T09:33:48.653Z,9.82
2017-03-06T09:34:48.614Z,9.81
2017-03-06T09:35:48.690Z,9.75
2017-03-06T09:36:48.734Z,9.72
2017-03-06T09:37:48.771Z,9.81
2017-03-06T09:38:48.802Z,9.77
2017-03-06T09:39:49.113Z,9.8
2017-03-06T09:40:48.815Z,9.59
2017-03-06T09:41:48.918Z,9.6
2017-03-06T09:42:49.196Z,9.53
2017-03-06T09:43:48.900Z,9.47
2017-03-06T09:44:49.006Z,9.44
2017-03-06T09:45:48.957Z,9.41
2017-03-06T09:46:49.297Z,9.44
2017-03-06T09:47:49.052Z,9.5
2017-03-06T09:48:49.067Z,9.48
2017-03-06T09:49:49.100Z,9.53
2017-03-06T09:50:49.111Z,9.47
2017-03-06T09:51:49.183Z,9.53
2017-03-06T09:52:49.219Z,9.42
2017-03-06T09:53:49.572Z,9.53
2017-03-06T09:54:49.291Z,9.5
2017-03-06T09:55:49.319Z,9.45
2017-03-06T09:56:49.281Z,9.38
2017-03-06T09:57:49.345Z,9.35
2017-03-06T09:58:49.418Z,9.27
2017-03-06T09:59:49.402Z,9.27
2017-03-06T10:00:49.401Z,9.2
2017-03-06T10:01:49.472Z,9.16
2017-03-06T10:02:49.504Z,9.09
2017-03-06T10:03:49.537Z,9
2017-03-06T10:04:49.554Z,8.98
2017-03-06T10:05:49.606Z,8.89
2017-03-06T10:06:49.581Z,8.89
2017-03-06T10:07:49.707Z,8.87
2017-03-06T10:08:49.709Z,8.86
2017-03-06T10:09:49.666Z,8.82
2017-03-06T10:10:49.727Z,8.77
2017-03-06T10:11:49.797Z,8.79
2017-03-06T10:12:49.781Z,8.6
2017-03-06T10:13:49.800Z,8.58
2017-03-06T10:14:49.898Z,8.74
2017-03-06T10:15:49.899Z,8.71
2017-03-06T10:16:49.926Z,8.77
2017-03-06T10:17:49.942Z,8.76
2017-03-06T10:18:49.975Z,8.87
2017-03-06T10:19:49.985Z,8.97
2017-03-06T10:20:50.065Z,9.03
2017-03-06T10:21:50.039Z,9.09
2017-03-06T10:22:50.107Z,9.12
2017-03-06T10:23:50.116Z,9.24
2017-03-06T10:24:50.139Z,9.26
2017-03-06T10:25:50.209Z,9.38
2017-03-06T10:26:50.189Z,9.47
2017-03-06T10:27:50.282Z,9.38
2017-03-06T10:28:50.248Z,9.41
2017-03-06T10:29:50.309Z,9.37
2017-03-06T10:30:50.347Z,9.2
2017-03-06T10:31:50.359Z,9.11
2017-03-06T10:32:50.408Z,9.19
2017-03-06T10:33:50.428Z,9.01
2017-03-06T10:34:50.416Z,9.01
2017-03-06T10:35:50.494Z,8.9
2017-03-06T10:36:50.497Z,8.86
2017-03-06T10:37:50.553Z,8.85
2017-03-06T10:38:50.853Z,8.86
2017-03-06T10:39:50.608Z,8.82
2017-03-06T10:40:50.631Z,8.86
2017-03-06T10:41:50.667Z,8.92
2017-03-06T10:42:50.709Z,8.94
2017-03-06T10:43:50.731Z,8.97
2017-03-06T10:44:50.763Z,8.9
2017-03-06T10:45:50.807Z,8.9
2017-03-06T10:46:50.828Z,8.94
2017-03-06T10:47:50.850Z,8.98
2017-03-06T10:48:50.865Z,9
2017-03-06T10:49:50.904Z,9.05
2017-03-06T10:50:50.937Z,9.03
2017-03-06T10:51:50.971Z,9.04
2017-03-06T10:52:51.035Z,9.04
2017-03-06T10:53:51.018Z,9.01
2017-03-06T10:54:51.059Z,8.98
2017-03-06T10:55:51.083Z,8.87
2017-03-06T10:56:51.117Z,8.89
2017-03-06T10:57:51.135Z,8.9
2017-03-06T10:58:51.147Z,8.87
2017-03-06T10:59:51.209Z,8.97
2017-03-06T11:00:51.216Z,9.01
2017-03-06T11:01:51.286Z,9.08
2017-03-06T11:02:51.319Z,9.09
2017-03-06T11:03:51.321Z,9.21
2017-03-06T11:04:51.356Z,9.26
2017-03-06T11:05:51.384Z,9.29
2017-03-06T11:06:51.420Z,9.41
2017-03-06T11:07:51.449Z,9.48
2017-03-06T11:08:51.473Z,9.66
2017-03-06T11:09:51.531Z,9.78
2017-03-06T11:10:51.661Z,9.88
2017-03-06T11:11:51.554Z,10.05
2017-03-06T11:12:51.593Z,10.14
2017-03-06T11:13:51.621Z,10.2
2017-03-06T11:14:51.610Z,10.05
2017-03-06T11:15:51.708Z,10.07
2017-03-06T11:16:51.707Z,10.29
2017-03-06T11:17:51.737Z,10.35
2017-03-06T11:18:51.813Z,10.44
2017-03-06T11:19:51.817Z,10.52
2017-03-06T11:20:51.814Z,10.58
2017-03-06T11:21:51.849Z,10.57
2017-03-06T11:22:51.873Z,10.57
2017-03-06T11:23:51.939Z,10.54
2017-03-06T11:24:51.966Z,10.58
2017-03-06T11:25:51.976Z,10.58
2017-03-06T11:26:51.984Z,10.58
2017-03-06T11:27:52.075Z,10.63
2017-03-06T11:28:52.095Z,10.61
2017-03-06T11:29:52.118Z,10.76
2017-03-06T11:30:52.420Z,10.76
2017-03-06T11:31:52.152Z,10.84
2017-03-06T11:32:52.236Z,10.84
2017-03-06T11:33:52.213Z,10.66
2017-03-06T11:34:52.246Z,10.58
2017-03-06T11:35:52.256Z,10.47
2017-03-06T11:36:52.327Z,10.55
2017-03-06T11:37:52.347Z,10.47
2017-03-06T11:38:52.381Z,10.42
2017-03-06T11:39:52.398Z,10.26
2017-03-06T11:40:52.423Z,10.21
2017-03-06T11:41:52.504Z,10.28
2017-03-06T11:42:52.537Z,10.25
2017-03-06T11:43:52.544Z,10.2
2017-03-06T11:44:52.624Z,10.13
2017-03-06T11:45:52.625Z,10.15
2017-03-06T11:46:52.604Z,9.99
2017-03-06T11:47:52.668Z,9.95
2017-03-06T11:48:52.698Z,9.98
2017-03-06T11:49:52.712Z,9.9
2017-03-06T11:50:52.765Z,9.82
2017-03-06T11:51:52.761Z,9.8
2017-03-06T11:52:52.794Z,9.8
2017-03-06T11:53:52.824Z,9.78
2017-03-06T11:54:52.862Z,9.71
2017-03-06T11:55:52.911Z,9.75
2017-03-06T11:56:52.917Z,9.74
2017-03-06T11:57:52.993Z,9.7
2017-03-06T11:58:53.017Z,9.62
2017-03-06T11:59:53.037Z,9.72
2017-03-06T12:00:53.039Z,9.75
2017-03-06T12:01:53.093Z,9.75
2017-03-06T12:02:53.119Z,9.72
2017-03-06T12:03:53.171Z,9.8
2017-03-06T12:04:53.222Z,9.75
2017-03-06T12:05:53.236Z,9.78
2017-03-06T12:06:53.266Z,9.78
2017-03-06T12:07:53.306Z,9.88
2017-03-06T12:08:53.618Z,9.95
2017-03-06T12:09:53.322Z,10.07
2017-03-06T12:10:53.358Z,10.32
2017-03-06T12:11:53.411Z,10.44
2017-03-06T12:12:53.410Z,10.35
2017-03-06T12:13:53.480Z,10.51
2017-03-06T12:14:53.519Z,10.51
2017-03-06T12:15:53.515Z,10.46
2017-03-06T12:16:53.588Z,10.26
2017-03-06T12:17:53.607Z,10.25
2017-03-06T12:18:53.646Z,10.17
2017-03-06T12:19:53.624Z,10.08
2017-03-06T12:20:53.703Z,10.11
2017-03-06T12:21:53.693Z,10.03
2017-03-06T12:22:53.809Z,9.95
2017-03-06T12:23:53.787Z,9.99
2017-03-06T12:24:53.830Z,9.96
2017-03-06T12:25:54.204Z,9.96
2017-03-06T12:26:53.889Z,9.95
2017-03-06T12:27:53.931Z,9.95
2017-03-06T12:28:53.916Z,9.82
2017-03-06T12:29:53.972Z,9.81
2017-03-06T12:30:53.979Z,9.81
2017-03-06T12:31:54.004Z,9.8
2017-03-06T12:32:54.095Z,9.74
2017-03-06T12:33:54.449Z,9.72
2017-03-06T12:34:54.134Z,9.59
2017-03-06T12:35:54.235Z,9.66
2017-03-06T12:36:54.186Z,9.53
2017-03-06T12:37:54.217Z,9.39
2017-03-06T12:38:54.248Z,9.39
2017-03-06T12:39:54.304Z,9.32
2017-03-06T12:40:54.395Z,9.34
2017-03-06T12:41:54.334Z,9.21
2017-03-06T12:42:54.358Z,9.23
2017-03-06T12:43:54.410Z,9.21
2017-03-06T12:44:54.451Z,9.16
2017-03-06T12:45:54.535Z,9.08
2017-03-06T12:46:54.538Z,9.11
2017-03-06T12:47:54.496Z,9.01
2017-03-06T12:48:54.552Z,9.01
2017-03-06T12:49:54.552Z,9.03
2017-03-06T12:50:54.645Z,9
2017-03-06T12:51:54.638Z,8.98
2017-03-06T12:52:54.689Z,8.89
2017-03-06T12:53:55.003Z,8.92
2017-03-06T12:54:54.757Z,8.89
2017-03-06T12:55:54.737Z,8.9
2017-03-06T12:56:54.799Z,8.87
2017-03-06T12:57:55.152Z,8.94
2017-03-06T12:58:54.824Z,8.89
2017-03-06T12:59:54.905Z,8.9
2017-03-06T13:00:54.937Z,8.89
2017-03-06T13:01:54.907Z,9.01
2017-03-06T13:02:54.989Z,8.97
2017-03-06T13:03:55.032Z,9.01
2017-03-06T13:04:55.044Z,9.04
2017-03-06T13:05:55.128Z,9.01
2017-03-06T13:06:55.143Z,9.03
2017-03-06T13:07:55.127Z,9.04
2017-03-06T13:08:55.135Z,9.04
2017-03-06T13:09:55.197Z,9
2017-03-06T13:10:55.245Z,9
2017-03-06T13:11:55.250Z,9.19
2017-03-06T13:12:55.247Z,9.16
2017-03-06T13:13:55.306Z,9.16
2017-03-06T13:14:55.324Z,9.09
2017-03-06T13:15:55.339Z,9.11
2017-03-06T13:16:55.405Z,9.14
2017-03-06T13:17:55.435Z,9.08
2017-03-06T13:18:55.437Z,9.17
2017-03-06T13:19:55.544Z,9.01
2017-03-06T13:20:55.547Z,9.04